Time;durP1;ratioP1;P1;durP2;ratioP2;P2;SDS_P1;SDS_P2;PMS_P1;PMS_P2;Temp;Humidity;BMP_temperature;BMP_pressure;BME280_temperature;BME280_humidity;BME280_pressure;Samples;Min_cycle;Max_cycle;Signal;HPM_P1;HPM_P2
2023/08/06 00:00:08;;;;;;;3.45;2.70;;;;;;;18.82;73.48;99437.41;10503616;28;20105;-71
2023/08/06 00:05:09;;;;;;;5.05;2.58;;;;;;;18.77;73.43;99440.81;10510606;28;20111;-72
2023/08/06 00:10:11;;;;;;;11.48;3.92;;;;;;;18.82;73.29;99440.13;10510127;28;20417;-72
2023/08/06 00:15:12;;;;;;;5.32;2.75;;;;;;;18.78;73.06;99422.63;10509280;28;20048;-72
2023/08/06 00:20:14;;;;;;;4.25;2.55;;;;;;;18.75;73.35;99429.38;10507724;28;20272;-72
2023/08/06 00:25:16;;;;;;;3.55;2.40;;;;;;;18.78;73.30;99422.63;10509362;28;20341;-72
2023/08/06 00:30:17;;;;;;;4.93;2.42;;;;;;;18.77;73.26;99419.03;10511047;28;20040;-71
2023/08/06 00:35:19;;;;;;;5.40;2.55;;;;;;;18.77;73.11;99410.88;10511287;28;20052;-72
2023/08/06 00:40:22;;;;;;;4.00;3.15;;;;;;;18.81;72.89;99403.06;10508720;28;20047;-72
2023/08/06 00:45:25;;;;;;;8.02;2.83;;;;;;;18.75;72.98;99387.72;10508578;28;20116;-72
2023/08/06 00:50:26;;;;;;;3.00;2.65;;;;;;;18.79;72.97;99384.25;10509507;28;20301;-72
2023/08/06 00:55:28;;;;;;;2.42;2.05;;;;;;;18.78;72.79;99385.31;10508255;28;20290;-72
2023/08/06 01:00:30;;;;;;;4.43;2.40;;;;;;;18.85;72.93;99379.69;10505548;28;20340;-72
2023/08/06 01:05:31;;;;;;;6.72;2.42;;;;;;;18.85;72.65;99363.34;10508695;28;20353;-72
2023/08/06 01:10:58;;;;;;;5.07;2.65;;;;;;;18.78;72.97;99368.16;10505977;28;20038;-73
2023/08/06 01:16:02;;;;;;;3.05;2.38;;;;;;;18.78;72.88;99368.16;10505495;28;20036;-73
2023/08/06 01:21:03;;;;;;;4.82;2.65;;;;;;;18.73;73.07;99360.72;10507055;28;20056;-72
2023/08/06 01:26:29;;;;;;;4.25;2.30;;;;;;;18.76;72.95;99360.25;10504980;28;20244;-71
2023/08/06 01:31:33;;;;;;;3.55;2.35;;;;;;;18.75;72.85;99342.25;10506232;28;20101;-71
2023/08/06 01:36:35;;;;;;;8.07;2.85;;;;;;;18.81;72.80;99340.44;10507704;28;20093;-71
2023/08/06 01:41:37;;;;;;;3.50;2.33;;;;;;;18.82;72.63;99342.91;10505800;28;20059;-72
2023/08/06 01:46:38;;;;;;;5.43;2.97;;;;;;;18.79;72.61;99334.38;10505624;28;20070;-71
2023/08/06 01:51:40;;;;;;;3.47;1.92;;;;;;;18.77;72.43;99325.66;10502607;28;20080;-72
2023/08/06 01:56:41;;;;;;;2.97;2.00;;;;;;;18.74;72.53;99321.56;10506659;28;20449;-72
2023/08/06 02:01:42;;;;;;;4.78;2.10;;;;;;;18.75;72.45;99315.00;10506079;28;20067;-72
2023/08/06 02:06:44;;;;;;;5.38;2.22;;;;;;;18.76;72.44;99311.22;10504901;28;20040;-72
2023/08/06 02:11:45;;;;;;;3.05;1.98;;;;;;;18.80;72.42;99293.34;10504912;28;20079;-73
2023/08/06 02:16:47;;;;;;;5.82;2.05;;;;;;;18.79;72.28;99299.00;10503835;28;20044;-72
2023/08/06 02:21:48;;;;;;;7.72;2.25;;;;;;;18.83;72.35;99289.25;10505440;28;20119;-73
2023/08/06 02:26:51;;;;;;;3.45;2.25;;;;;;;18.74;72.54;99278.00;10503043;28;20119;-73
2023/08/06 02:31:52;;;;;;;4.07;1.52;;;;;;;18.75;72.30;99278.81;10504549;28;20067;-73
2023/08/06 02:36:54;;;;;;;2.75;1.65;;;;;;;18.69;72.43;99277.13;10501674;28;20332;-73
2023/08/06 02:41:55;;;;;;;2.45;1.63;;;;;;;18.69;72.18;99275.19;10505578;28;20068;-71
2023/08/06 02:46:57;;;;;;;2.60;1.95;;;;;;;18.69;72.38;99255.34;10505463;28;20363;-72
2023/08/06 02:51:59;;;;;;;2.78;1.77;;;;;;;18.77;72.19;99254.88;10504522;28;20062;-72
2023/08/06 02:57:00;;;;;;;3.47;1.90;;;;;;;18.78;72.14;99251.91;10504232;28;20056;-71
2023/08/06 03:02:02;;;;;;;2.80;1.70;;;;;;;18.80;72.05;99257.94;10502013;28;20100;-72
2023/08/06 03:07:03;;;;;;;3.78;1.67;;;;;;;18.81;71.90;99243.22;10503558;28;20116;-72
2023/08/06 03:12:05;;;;;;;2.42;1.90;;;;;;;18.75;72.30;99243.41;10502935;28;20337;-71
2023/08/06 03:17:06;;;;;;;4.47;1.60;;;;;;;18.66;72.49;99234.06;10504417;28;20111;-70
2023/08/06 03:22:08;;;;;;;5.28;1.40;;;;;;;18.63;72.37;99228.03;10501853;28;20040;-71
2023/08/06 03:27:09;;;;;;;2.08;1.52;;;;;;;18.60;72.46;99225.84;10503391;28;20060;-71
2023/08/06 03:32:11;;;;;;;4.63;1.20;;;;;;;18.50;72.43;99217.56;10503979;28;20051;-71
2023/08/06 03:37:12;;;;;;;2.58;1.10;;;;;;;18.51;72.36;99226.56;10507750;28;20059;-71
2023/08/06 03:42:14;;;;;;;2.00;1.20;;;;;;;18.28;72.74;99219.50;10511218;28;20052;-71
2023/08/06 03:47:15;;;;;;;3.58;1.48;;;;;;;18.20;72.76;99205.25;10511443;28;20103;-70
2023/08/06 03:52:16;;;;;;;3.88;1.00;;;;;;;18.31;72.49;99202.69;10513700;28;20272;-71
2023/08/06 03:57:18;;;;;;;2.30;1.20;;;;;;;18.26;72.42;99198.00;10509166;28;20278;-72
2023/08/06 04:02:19;;;;;;;1.95;0.88;;;;;;;18.29;72.31;99197.50;10510265;28;20075;-72
2023/08/06 04:07:21;;;;;;;3.20;1.10;;;;;;;18.25;72.12;99185.47;10510514;28;20071;-72
2023/08/06 04:12:22;;;;;;;2.30;0.88;;;;;;;18.25;72.14;99193.63;10510275;28;20059;-71
2023/08/06 04:17:24;;;;;;;2.38;0.90;;;;;;;18.26;72.25;99186.28;10507450;28;20135;-72
2023/08/06 04:22:25;;;;;;;1.67;0.80;;;;;;;18.31;71.67;99183.63;10510133;28;20539;-72
2023/08/06 04:27:27;;;;;;;3.67;0.70;;;;;;;18.35;71.43;99182.03;10508154;28;20075;-73
2023/08/06 04:32:30;;;;;;;1.30;0.80;;;;;;;18.23;71.66;99182.19;10508124;28;20103;-72
2023/08/06 04:37:31;;;;;;;3.70;0.70;;;;;;;18.15;71.66;99193.53;10506965;28;20048;-73
2023/08/06 04:42:33;;;;;;;4.72;0.75;;;;;;;18.11;71.67;99189.66;10508635;28;20103;-73
2023/08/06 04:47:34;;;;;;;2.40;1.17;;;;;;;18.03;71.70;99186.31;10507256;28;20104;-72
2023/08/06 04:52:36;;;;;;;1.15;0.77;;;;;;;18.04;71.70;99190.66;10507152;28;20040;-72
2023/08/06 04:57:38;;;;;;;2.05;0.98;;;;;;;18.10;71.46;99194.28;10509291;28;20067;-72
2023/08/06 05:02:39;;;;;;;3.90;0.80;;;;;;;18.09;71.83;99186.34;10505918;28;20289;-72
2023/08/06 05:07:41;;;;;;;1.77;1.17;;;;;;;18.09;71.71;99186.34;10506763;28;20048;-72
2023/08/06 05:12:42;;;;;;;2.30;0.57;;;;;;;18.08;71.72;99187.44;10513761;28;20052;-72
2023/08/06 05:17:43;;;;;;;1.20;0.60;;;;;;;17.93;71.99;99197.06;10508404;28;20127;-72
2023/08/06 05:22:45;;;;;;;1.85;0.40;;;;;;;17.88;72.13;99191.56;10507133;28;20332;-72
2023/08/06 05:27:46;;;;;;;2.25;0.60;;;;;;;17.57;72.92;99210.13;10508749;28;20111;-71
2023/08/06 05:32:48;;;;;;;2.92;0.70;;;;;;;17.38;73.53;99201.47;10508192;28;20115;-71
2023/08/06 05:37:52;;;;;;;2.75;0.50;;;;;;;17.32;73.74;99197.03;10507637;28;20068;-73
2023/08/06 05:42:54;;;;;;;2.05;0.65;;;;;;;17.29;74.07;99197.50;10506699;28;20120;-73
2023/08/06 05:47:58;;;;;;;3.28;0.50;;;;;;;17.32;73.93;99199.75;10507050;28;20056;-72
2023/08/06 05:52:59;;;;;;;3.22;0.45;;;;;;;17.35;74.44;99204.66;10505509;28;20063;-73
2023/08/06 05:58:02;;;;;;;2.70;0.40;;;;;;;17.36;74.64;99206.31;10505824;28;20048;-73
2023/08/06 06:03:04;;;;;;;1.52;0.40;;;;;;;17.36;74.88;99205.50;10505629;28;20116;-73
2023/08/06 06:08:05;;;;;;;0.85;0.30;;;;;;;17.30;75.14;99201.03;10504928;28;20115;-72
2023/08/06 06:13:06;;;;;;;0.88;0.30;;;;;;;17.35;74.90;99201.13;10503890;28;20768;-72
2023/08/06 06:18:10;;;;;;;1.42;0.40;;;;;;;17.34;75.08;99194.88;10505051;28;20067;-71
2023/08/06 06:23:12;;;;;;;2.83;0.30;;;;;;;17.35;75.08;99196.50;10504226;28;20040;-73
2023/08/06 06:28:13;;;;;;;3.17;0.40;;;;;;;17.14;75.87;99197.25;10508200;28;20108;-72
2023/08/06 06:33:15;;;;;;;2.05;0.40;;;;;;;16.94;76.45;99189.63;10502167;28;20108;-73
2023/08/06 06:38:16;;;;;;;1.13;0.32;;;;;;;16.94;76.76;99203.19;10507692;28;20127;-73
2023/08/06 06:43:17;;;;;;;3.13;0.30;;;;;;;16.89;76.88;99203.13;10507027;28;20044;-72
2023/08/06 06:48:19;;;;;;;1.02;0.20;;;;;;;16.84;77.01;99196.53;10505059;28;20222;-72
2023/08/06 06:53:23;;;;;;;1.58;0.30;;;;;;;16.85;77.34;99200.88;10505528;28;20052;-71
2023/08/06 06:58:24;;;;;;;0.43;0.10;;;;;;;16.77;77.27;99200.44;10502827;28;20068;-71
2023/08/06 07:03:26;;;;;;;0.40;0.10;;;;;;;16.66;77.22;99199.44;10501087;28;20244;-72
2023/08/06 07:08:27;;;;;;;0.20;0.10;;;;;;;16.60;77.91;99208.53;10503919;28;20048;-72
2023/08/06 07:13:30;;;;;;;0.65;0.10;;;;;;;16.63;77.59;99199.94;10504999;28;20040;-73
2023/08/06 07:18:31;;;;;;;0.40;0.20;;;;;;;16.72;77.29;99201.16;10503452;28;20063;-72
2023/08/06 07:23:32;;;;;;;0.95;0.38;;;;;;;16.65;77.76;99201.31;10500017;28;20075;-72
2023/08/06 07:28:34;;;;;;;0.77;0.30;;;;;;;16.59;77.96;99196.06;10504007;28;20055;-72
2023/08/06 07:33:35;;;;;;;1.45;0.30;;;;;;;16.67;77.95;99198.38;10502219;28;20072;-72
2023/08/06 07:38:37;;;;;;;1.30;0.20;;;;;;;16.64;77.91;99202.38;10503499;28;20055;-72
2023/08/06 07:43:39;;;;;;;0.43;0.13;;;;;;;16.73;78.09;99202.81;10502090;28;20075;-72
2023/08/06 07:48:40;;;;;;;0.40;0.10;;;;;;;16.70;78.14;99197.88;10503540;28;20044;-71
2023/08/06 07:53:42;;;;;;;1.00;0.10;;;;;;;16.77;78.13;99197.72;10502271;28;20052;-71
2023/08/06 07:58:43;;;;;;;0.73;0.10;;;;;;;16.66;78.31;99189.38;10501097;28;20123;-71
2023/08/06 08:03:45;;;;;;;0.22;0.10;;;;;;;16.64;78.47;99194.25;10501500;28;20123;-72
2023/08/06 08:08:47;;;;;;;0.57;0.45;;;;;;;16.68;78.34;99191.88;10503093;28;20051;-71
2023/08/06 08:13:49;;;;;;;0.63;0.20;;;;;;;16.70;78.49;99195.16;10504219;28;20075;-71
2023/08/06 08:18:50;;;;;;;0.98;0.30;;;;;;;16.72;78.83;99190.31;10504749;28;20076;-71
2023/08/06 08:23:52;;;;;;;0.30;0.10;;;;;;;16.87;79.05;99191.69;10509302;28;20123;-72
2023/08/06 08:28:53;;;;;;;1.45;0.35;;;;;;;17.05;78.85;99188.72;10490114;28;20067;-72
2023/08/06 08:33:55;;;;;;;0.40;0.20;;;;;;;17.26;78.84;99192.59;10507464;28;20067;-72
2023/08/06 08:39:00;;;;;;;0.82;0.20;;;;;;;17.41;78.80;99197.41;10509641;28;20045;-72
2023/08/06 08:44:02;;;;;;;0.82;0.10;;;;;;;17.62;78.66;99190.38;10509911;28;20101;-72
2023/08/06 08:49:03;;;;;;;1.00;0.10;;;;;;;17.80;78.53;99190.06;10508731;28;20267;-72
2023/08/06 08:54:07;;;;;;;0.60;0.10;;;;;;;17.97;78.28;99181.91;10509066;28;20392;-72
2023/08/06 08:59:10;;;;;;;0.93;0.13;;;;;;;18.15;78.16;99183.47;10509240;28;20404;-73
2023/08/06 09:04:12;;;;;;;0.10;0.10;;;;;;;18.33;78.02;99178.75;10504113;28;20052;-73
2023/08/06 09:09:19;;;;;;;0.30;0.22;;;;;;;18.74;77.26;99177.25;10506790;28;20405;-72
2023/08/06 09:14:20;;;;;;;1.02;0.20;;;;;;;18.69;77.25;99182.66;10508742;28;20132;-74
2023/08/06 09:19:22;;;;;;;0.63;0.10;;;;;;;18.67;77.01;99175.81;10507259;28;20060;-72
2023/08/06 09:24:23;;;;;;;0.50;0.10;;;;;;;18.62;76.87;99168.41;10506731;28;20135;-73
2023/08/06 09:29:31;;;;;;;0.50;0.20;;;;;;;18.59;76.45;99164.31;10508105;28;20036;-72
2023/08/06 09:34:33;;;;;;;0.38;0.10;;;;;;;18.46;76.40;99159.28;10507981;28;20310;-72
2023/08/06 09:39:34;;;;;;;0.30;0.10;;;;;;;18.58;76.05;99159.13;10507675;28;20047;-72
2023/08/06 09:44:36;;;;;;;0.03;0.00;;;;;;;18.89;75.48;99154.00;10506137;28;20052;-71
2023/08/06 09:49:45;;;;;;;0.52;0.13;;;;;;;19.25;74.37;99165.94;10504979;28;20390;-70
2023/08/06 09:54:48;;;;;;;0.10;0.00;;;;;;;19.62;73.39;99154.19;10507622;28;20276;-71
2023/08/06 09:59:51;;;;;;;0.00;0.00;;;;;;;19.88;72.56;99146.13;10506801;28;20108;-71
2023/08/06 10:04:55;;;;;;;0.60;0.10;;;;;;;20.39;71.76;99143.56;10504306;28;20068;-71
2023/08/06 10:09:56;;;;;;;0.00;0.00;;;;;;;20.69;70.93;99145.50;10507478;28;20052;-70
2023/08/06 10:15:02;;;;;;;0.03;0.00;;;;;;;20.84;69.73;99136.53;10505787;28;20040;-72
2023/08/06 10:20:08;;;;;;;1.08;0.00;;;;;;;21.23;69.00;99137.81;10505635;28;20040;-73
2023/08/06 10:25:09;;;;;;;0.00;0.00;;;;;;;21.22;67.57;99131.56;10506787;28;20116;-72
2023/08/06 10:30:29;;;;;;;0.40;0.10;;;;;;;20.82;66.84;99146.91;10510234;28;20044;-72
2023/08/06 10:35:38;;;;;;;1.65;0.35;;;;;;;20.73;67.17;99149.34;10508628;28;20089;-73
2023/08/06 10:40:41;;;;;;;0.10;0.00;;;;;;;20.68;67.82;99152.09;10507300;28;20062;-72
2023/08/06 10:45:50;;;;;;;0.10;0.10;;;;;;;20.84;67.60;99154.81;10503461;28;20075;-71
2023/08/06 10:50:52;;;;;;;1.05;0.10;;;;;;;21.00;67.49;99140.06;10505935;28;20051;-71
2023/08/06 10:55:53;;;;;;;0.08;0.00;;;;;;;21.19;67.02;99138.41;10505611;28;20083;-71
2023/08/06 11:00:56;;;;;;;0.20;0.00;;;;;;;21.22;66.48;99137.03;10502793;28;20064;-72
2023/08/06 11:05:57;;;;;;;0.20;0.00;;;;;;;21.56;66.00;99145.47;10503981;28;20329;-72
2023/08/06 11:11:10;;;;;;;0.00;0.00;;;;;;;21.76;65.14;99130.03;10503547;28;20104;-72
2023/08/06 11:16:20;;;;;;;0.00;0.00;;;;;;;22.08;63.57;99132.38;10504209;28;20056;-76
2023/08/06 11:21:24;;;;;;;0.00;0.00;;;;;;;22.26;62.93;99139.16;10492464;28;20036;-72
2023/08/06 11:26:27;;;;;;;0.00;0.00;;;;;;;22.36;62.46;99141.81;10506128;28;20322;-71
2023/08/06 11:31:29;;;;;;;0.08;0.00;;;;;;;22.64;62.49;99144.09;10504969;28;20055;-72
2023/08/06 11:36:31;;;;;;;0.00;0.00;;;;;;;22.91;61.46;99149.91;10503857;28;20044;-71
2023/08/06 11:41:33;;;;;;;0.05;0.00;;;;;;;22.99;60.95;99139.44;10503265;28;20063;-71
2023/08/06 11:46:55;;;;;;;0.75;0.00;;;;;;;22.52;61.01;99163.63;10504917;28;20048;-72
2023/08/06 11:51:57;;;;;;;5.03;0.17;;;;;;;20.43;68.06;99190.25;10504844;28;20307;-72
2023/08/06 11:56:58;;;;;;;1.77;0.10;;;;;;;19.07;72.50;99180.81;10505220;28;20108;-71
2023/08/06 12:02:01;;;;;;;1.40;0.10;;;;;;;18.20;74.22;99201.72;10513844;28;20120;-71
2023/08/06 12:07:09;;;;;;;0.00;0.00;;;;;;;17.25;75.89;99216.19;10514112;28;20048;-71
2023/08/06 12:12:10;;;;;;;0.00;0.00;;;;;;;16.66;77.04;99229.28;10510165;28;20076;-70
2023/08/06 12:17:12;;;;;;;1.02;0.00;;;;;;;16.43;77.51;99265.50;10510042;28;20056;-71
2023/08/06 12:22:14;;;;;;;0.00;0.00;;;;;;;16.34;77.89;99264.22;10511218;28;20032;-71
2023/08/06 12:27:18;;;;;;;0.00;0.00;;;;;;;16.03;78.70;99275.25;10511330;28;20066;-72
2023/08/06 12:32:19;;;;;;;0.00;0.00;;;;;;;15.87;79.10;99297.66;10509250;28;20048;-71
2023/08/06 12:37:21;;;;;;;0.38;0.00;;;;;;;15.83;79.10;99308.13;10507110;28;20078;-71
2023/08/06 12:42:24;;;;;;;2.17;0.00;;;;;;;15.85;78.96;99311.44;10508538;28;20075;-72
2023/08/06 12:47:25;;;;;;;0.38;0.00;;;;;;;15.85;78.84;99314.13;10510347;28;20079;-71
2023/08/06 12:52:26;;;;;;;0.10;0.00;;;;;;;15.75;79.15;99342.91;10507542;28;20041;-71
2023/08/06 12:57:29;;;;;;;0.20;0.00;;;;;;;15.81;79.11;99333.81;10511544;28;20083;-71
2023/08/06 13:02:50;;;;;;;0.20;0.00;;;;;;;15.94;78.95;99357.16;10504892;28;20056;-71
2023/08/06 13:07:52;;;;;;;0.28;0.00;;;;;;;15.88;78.74;99367.06;10505634;28;20040;-72
2023/08/06 13:12:54;;;;;;;0.10;0.00;;;;;;;15.96;78.24;99382.97;10508734;28;20398;-72
2023/08/06 13:17:55;;;;;;;0.17;0.08;;;;;;;15.88;78.66;99390.59;10507288;28;20048;-71
2023/08/06 13:22:58;;;;;;;0.60;0.00;;;;;;;15.82;78.87;99386.97;10507969;28;20089;-70
2023/08/06 13:27:59;;;;;;;0.20;0.10;;;;;;;15.83;79.01;99394.03;10505250;28;20036;-71
2023/08/06 13:33:01;;;;;;;0.00;0.00;;;;;;;15.82;79.24;99395.09;10508785;28;20363;-70
2023/08/06 13:38:03;;;;;;;0.03;0.00;;;;;;;15.82;79.12;99392.41;10507200;28;20059;-71
2023/08/06 13:43:04;;;;;;;0.68;0.00;;;;;;;15.82;79.18;99408.66;10506875;28;20040;-71
2023/08/06 13:48:06;;;;;;;0.80;0.00;;;;;;;15.85;79.13;99413.59;10503698;28;20111;-71
2023/08/06 13:53:07;;;;;;;1.75;0.00;;;;;;;15.67;79.81;99412.59;10510134;28;20059;-70
2023/08/06 13:58:09;;;;;;;0.45;0.10;;;;;;;15.61;80.11;99416.22;10506797;28;20597;-71
2023/08/06 14:03:10;;;;;;;0.20;0.10;;;;;;;15.68;80.14;99418.84;10503169;28;20138;-71
2023/08/06 14:08:13;;;;;;;0.00;0.00;;;;;;;15.86;79.37;99416.06;10500562;28;20043;-71
2023/08/06 14:13:14;;;;;;;0.85;0.10;;;;;;;16.03;79.08;99429.78;10505485;28;20409;-71
2023/08/06 14:18:16;;;;;;;1.05;0.10;;;;;;;16.16;78.88;99433.31;10504461;28;20052;-72
2023/08/06 14:23:18;;;;;;;0.10;0.08;;;;;;;16.28;78.66;99436.03;10501858;28;20248;-72
2023/08/06 14:28:19;;;;;;;2.20;0.08;;;;;;;16.41;78.18;99452.03;10504554;28;20052;-73
2023/08/06 14:33:21;;;;;;;0.43;0.00;;;;;;;16.50;78.11;99445.19;10502649;28;20076;-73
2023/08/06 14:38:28;;;;;;;0.10;0.00;;;;;;;16.59;77.34;99446.50;10504861;28;20357;-73
2023/08/06 14:43:29;;;;;;;0.00;0.00;;;;;;;16.67;76.78;99445.31;10504386;28;20054;-73
2023/08/06 14:48:31;;;;;;;0.65;0.00;;;;;;;16.81;75.50;99452.16;10504913;28;20112;-73
2023/08/06 14:53:32;;;;;;;0.00;0.00;;;;;;;16.88;75.09;99465.59;10506269;28;20125;-74
2023/08/06 14:58:34;;;;;;;0.25;0.10;;;;;;;16.95;74.56;99479.88;10506816;28;20244;-73
2023/08/06 15:03:35;;;;;;;0.00;0.00;;;;;;;17.01;74.36;99483.50;10504058;28;20101;-72
2023/08/06 15:08:36;;;;;;;0.47;0.03;;;;;;;17.10;73.36;99495.66;10504708;28;20280;-72
2023/08/06 15:13:38;;;;;;;0.00;0.00;;;;;;;17.25;72.09;99501.38;10506123;28;20036;-73
2023/08/06 15:18:39;;;;;;;0.13;0.00;;;;;;;17.39;72.06;99517.41;10512951;28;20043;-72
2023/08/06 15:23:41;;;;;;;0.22;0.00;;;;;;;17.45;71.75;99524.59;10505903;28;20072;-72
2023/08/06 15:28:42;;;;;;;0.80;0.03;;;;;;;17.48;70.35;99535.00;10505526;28;20088;-72
2023/08/06 15:33:44;;;;;;;0.60;0.00;;;;;;;17.53;69.69;99524.22;10510712;28;20120;-73
2023/08/06 15:38:45;;;;;;;0.13;0.08;;;;;;;17.56;68.57;99525.63;10511696;28;20099;-71
2023/08/06 15:43:46;;;;;;;0.17;0.03;;;;;;;17.59;68.50;99531.38;10512284;28;20096;-71
2023/08/06 15:48:48;;;;;;;1.05;0.00;;;;;;;17.61;67.55;99547.47;10513649;28;20115;-71
2023/08/06 15:53:49;;;;;;;0.10;0.00;;;;;;;17.61;67.24;99551.03;10512539;28;20403;-71
2023/08/06 15:58:50;;;;;;;0.28;0.10;;;;;;;17.61;67.19;99548.31;10509601;28;20111;-72
2023/08/06 16:03:52;;;;;;;0.20;0.10;;;;;;;17.49;65.89;99557.56;10509998;28;20120;-72
2023/08/06 16:08:53;;;;;;;0.82;0.10;;;;;;;17.55;66.63;99565.56;10511302;28;20353;-71
2023/08/06 16:13:55;;;;;;;0.43;0.40;;;;;;;17.62;67.14;99576.31;10510994;28;20048;-72
2023/08/06 16:18:56;;;;;;;0.80;0.00;;;;;;;17.58;66.81;99578.66;10508638;28;20111;-72
2023/08/06 16:23:58;;;;;;;0.52;0.08;;;;;;;17.50;67.31;99579.06;10510414;28;20048;-74
2023/08/06 16:28:59;;;;;;;0.10;0.00;;;;;;;17.44;67.08;99580.84;10513503;28;20526;-71
2023/08/06 16:34:00;;;;;;;0.43;0.00;;;;;;;17.51;66.89;99585.31;10514366;28;20048;-70
2023/08/06 16:39:02;;;;;;;0.10;0.05;;;;;;;17.57;66.94;99587.06;10509624;28;20048;-71
2023/08/06 16:44:06;;;;;;;1.45;0.08;;;;;;;17.57;67.72;99597.94;10510221;28;20036;-71
2023/08/06 16:49:07;;;;;;;0.73;0.00;;;;;;;17.55;68.00;99595.44;10509948;28;20043;-71
2023/08/06 16:54:09;;;;;;;0.20;0.00;;;;;;;17.52;68.39;99595.13;10508895;28;20112;-72
2023/08/06 16:59:11;;;;;;;0.10;0.08;;;;;;;17.47;68.55;99598.53;10509694;28;20107;-72
2023/08/06 17:04:12;;;;;;;0.20;0.10;;;;;;;17.47;68.88;99600.44;10508275;28;20032;-71
2023/08/06 17:09:14;;;;;;;0.85;0.03;;;;;;;17.45;69.40;99600.69;10509241;28;20052;-73
2023/08/06 17:14:15;;;;;;;1.05;0.00;;;;;;;17.26;70.13;99619.03;10508299;28;20115;-73
2023/08/06 17:19:16;;;;;;;0.95;0.20;;;;;;;17.02;70.59;99612.78;10508822;28;20064;-74
2023/08/06 17:24:19;;;;;;;0.82;0.68;;;;;;;16.96;70.96;99620.00;10512936;28;20041;-72
2023/08/06 17:29:20;;;;;;;0.00;0.00;;;;;;;16.96;71.14;99622.72;10508721;28;20067;-72
2023/08/06 17:34:22;;;;;;;0.38;0.00;;;;;;;17.03;70.99;99626.13;10508337;28;20075;-72
2023/08/06 17:39:23;;;;;;;0.10;0.00;;;;;;;17.02;70.96;99629.06;10505082;28;20064;-72
2023/08/06 17:44:26;;;;;;;1.48;0.00;;;;;;;16.93;71.37;99630.50;10505546;28;20121;-73
2023/08/06 17:49:27;;;;;;;0.00;0.00;;;;;;;16.67;72.08;99640.72;10501327;28;20112;-73
2023/08/06 17:54:29;;;;;;;0.10;0.00;;;;;;;16.51;72.96;99646.78;10507214;28;20056;-73
2023/08/06 17:59:30;;;;;;;0.20;0.10;;;;;;;16.18;73.95;99646.22;10506653;28;20123;-75
2023/08/06 18:04:32;;;;;;;0.20;0.00;;;;;;;16.19;73.96;99642.47;10504978;28;20100;-74
2023/08/06 18:09:34;;;;;;;0.43;0.10;;;;;;;16.23;73.69;99651.81;10505774;28;20064;-74
2023/08/06 18:14:36;;;;;;;0.10;0.10;;;;;;;16.30;73.64;99650.88;10506764;28;20051;-74
2023/08/06 18:19:37;;;;;;;1.17;0.00;;;;;;;16.33;73.53;99655.81;10511189;28;20072;-74
2023/08/06 18:24:39;;;;;;;0.10;0.00;;;;;;;16.41;73.33;99659.06;10503587;28;20036;-74
2023/08/06 18:29:40;;;;;;;0.10;0.00;;;;;;;16.37;73.59;99666.00;10505691;28;20071;-74
2023/08/06 18:34:42;;;;;;;0.57;0.00;;;;;;;16.38;73.42;99667.63;10488506;28;20094;-73
2023/08/06 18:39:43;;;;;;;0.77;0.10;;;;;;;16.29;73.45;99665.47;10504139;28;20053;-74
2023/08/06 18:44:45;;;;;;;0.30;0.10;;;;;;;16.26;73.35;99669.50;10503273;28;20044;-74
2023/08/06 18:49:46;;;;;;;0.05;0.00;;;;;;;16.28;73.34;99680.94;10503505;28;20112;-74
2023/08/06 18:54:47;;;;;;;0.15;0.05;;;;;;;16.18;73.44;99676.06;10503373;28;20353;-74
2023/08/06 18:59:51;;;;;;;1.30;0.20;;;;;;;16.17;73.33;99687.13;10504179;28;20098;-73
2023/08/06 19:04:54;;;;;;;0.30;0.10;;;;;;;16.14;73.50;99680.28;10502868;28;20060;-74
2023/08/06 19:09:55;;;;;;;0.20;0.05;;;;;;;16.13;73.49;99683.22;10503680;28;20048;-73
2023/08/06 19:14:57;;;;;;;0.10;0.10;;;;;;;16.02;73.92;99684.84;10505548;28;20104;-74
2023/08/06 19:19:58;;;;;;;3.78;1.17;;;;;;;15.99;73.72;99694.22;10504393;28;20064;-74
2023/08/06 19:25:00;;;;;;;0.10;0.00;;;;;;;15.92;73.89;99682.66;10502692;28;20120;-74
2023/08/06 19:30:02;;;;;;;0.10;0.10;;;;;;;15.87;74.08;99698.75;10500106;28;20052;-74
2023/08/06 19:35:04;;;;;;;0.28;0.10;;;;;;;15.94;73.90;99706.84;10499427;28;20109;-74
2023/08/06 19:40:08;;;;;;;0.03;0.00;;;;;;;15.78;74.47;99719.13;10503971;28;20111;-73
2023/08/06 19:45:10;;;;;;;0.10;0.10;;;;;;;15.59;75.32;99716.34;10501238;28;20228;-75
2023/08/06 19:50:12;;;;;;;0.00;0.00;;;;;;;15.50;75.65;99712.28;10501241;28;20051;-76
2023/08/06 19:55:13;;;;;;;0.20;0.10;;;;;;;15.49;75.72;99713.34;10501571;28;20063;-75
2023/08/06 20:00:16;;;;;;;0.40;0.15;;;;;;;15.44;75.97;99711.31;10503073;28;20147;-74
2023/08/06 20:05:18;;;;;;;2.25;0.20;;;;;;;15.45;75.86;99699.41;10504101;28;20048;-76
2023/08/06 20:10:19;;;;;;;0.20;0.10;;;;;;;15.41;76.31;99711.75;10503282;28;20214;-74
2023/08/06 20:15:20;;;;;;;0.80;0.10;;;;;;;15.51;76.20;99710.41;10504265;28;20127;-74
2023/08/06 20:20:22;;;;;;;0.15;0.00;;;;;;;15.51;76.13;99708.53;10509545;28;20074;-73
2023/08/06 20:25:23;;;;;;;0.20;0.00;;;;;;;15.55;76.17;99695.34;10509265;28;20122;-75
2023/08/06 20:30:25;;;;;;;0.32;0.10;;;;;;;15.52;76.56;99703.91;10509923;28;20112;-75
2023/08/06 20:35:26;;;;;;;0.47;0.10;;;;;;;15.54;76.32;99708.09;10509013;28;20054;-75
2023/08/06 20:40:28;;;;;;;0.20;0.13;;;;;;;15.45;76.84;99704.81;10508647;28;20116;-75
2023/08/06 20:45:29;;;;;;;0.20;0.10;;;;;;;15.45;77.11;99715.66;10509584;28;20048;-73
2023/08/06 20:50:31;;;;;;;0.98;0.60;;;;;;;15.44;77.22;99708.59;10493421;28;20049;-74
2023/08/06 20:55:32;;;;;;;0.00;0.00;;;;;;;15.44;77.07;99707.75;10508842;28;20353;-73
2023/08/06 21:00:33;;;;;;;1.17;0.00;;;;;;;15.42;77.10;99707.16;10507098;28;20048;-74
2023/08/06 21:05:35;;;;;;;0.00;0.00;;;;;;;15.48;77.08;99719.78;10509254;28;20368;-74
2023/08/06 21:10:36;;;;;;;0.05;0.03;;;;;;;15.55;76.56;99717.84;10508084;28;20049;-75
2023/08/06 21:15:38;;;;;;;0.10;0.10;;;;;;;15.67;76.11;99743.13;10509159;28;20147;-75
2023/08/06 21:20:39;;;;;;;0.93;0.30;;;;;;;15.71;74.88;99746.25;10507018;28;20331;-74
2023/08/06 21:25:42;;;;;;;1.30;0.40;;;;;;;15.75;74.42;99742.06;10509026;28;20103;-75
2023/08/06 21:30:43;;;;;;;0.75;0.45;;;;;;;15.79;73.94;99755.97;10507430;28;20071;-74
2023/08/06 21:35:45;;;;;;;0.65;0.50;;;;;;;15.80;73.10;99763.06;10508209;28;20309;-74
2023/08/06 21:40:46;;;;;;;0.40;0.40;;;;;;;15.87;72.75;99780.06;10509256;28;20313;-74
2023/08/06 21:45:47;;;;;;;0.63;0.30;;;;;;;15.91;72.18;99775.03;10504745;28;20047;-73
2023/08/06 21:50:49;;;;;;;1.80;0.68;;;;;;;15.93;71.79;99776.47;10506439;28;20155;-73
2023/08/06 21:55:50;;;;;;;0.70;0.38;;;;;;;15.94;71.69;99786.28;10507344;28;20064;-72
2023/08/06 22:00:52;;;;;;;2.80;0.40;;;;;;;15.96;70.86;99795.00;10504204;28;20135;-72
2023/08/06 22:05:54;;;;;;;1.63;0.40;;;;;;;15.96;70.60;99777.91;10505309;28;20337;-71
2023/08/06 22:10:56;;;;;;;1.15;0.30;;;;;;;15.99;70.48;99794.53;10505549;28;20036;-72
2023/08/06 22:15:58;;;;;;;0.80;0.30;;;;;;;16.04;70.45;99800.13;10505002;28;20052;-71
2023/08/06 22:21:00;;;;;;;2.13;0.30;;;;;;;16.08;70.36;99808.63;10506360;28;20101;-73
2023/08/06 22:26:01;;;;;;;0.52;0.20;;;;;;;16.04;70.34;99824.53;10489453;28;20052;-74
2023/08/06 22:31:04;;;;;;;2.53;0.30;;;;;;;16.06;69.81;99824.31;10506174;28;20056;-73
2023/08/06 22:36:06;;;;;;;1.48;0.30;;;;;;;16.09;69.64;99820.31;10505613;28;20353;-73
2023/08/06 22:41:08;;;;;;;0.85;0.40;;;;;;;16.05;69.59;99839.75;10506706;28;20093;-72
2023/08/06 22:46:12;;;;;;;2.00;0.40;;;;;;;16.15;69.17;99843.81;10503461;28;20103;-72
2023/08/06 22:51:16;;;;;;;1.10;0.30;;;;;;;16.10;68.90;99840.97;10506175;28;20384;-73
2023/08/06 22:56:18;;;;;;;4.15;0.32;;;;;;;16.13;68.65;99849.44;10504838;28;20052;-73
2023/08/06 23:01:19;;;;;;;1.05;0.30;;;;;;;16.08;68.58;99845.78;10502003;28;20070;-73
2023/08/06 23:06:21;;;;;;;0.28;0.20;;;;;;;16.11;68.55;99853.44;10505473;28;20064;-73
2023/08/06 23:11:22;;;;;;;0.88;0.20;;;;;;;16.11;68.21;99858.88;10503472;28;20080;-74
2023/08/06 23:16:24;;;;;;;1.00;0.10;;;;;;;16.13;68.58;99856.75;10504050;28;20366;-74
2023/08/06 23:21:25;;;;;;;1.75;0.10;;;;;;;16.15;68.49;99865.50;10502998;28;20052;-72